| time (UTC) | temp F | wind direction | speed MPH | gust MPH | rain 1hr in | rain 24hr in | rain mn in | humidity % | barometer mb |
| 20260507132615 | 73 | 158 | 4.0 | 11.0 | 0.00 | 0.00 | 0.00 | 53 | 1003.7 |
| 20260507132105 | 74 | 270 | 3.0 | 4.0 | 0.00 | 0.00 | 0.00 | 53 | 1003.1 |
| 20260507131555 | 72 | 180 | 2.0 | 7.0 | 0.00 | 0.00 | 0.00 | 55 | 1003.5 |
| 20260507130539 | 69 | 113 | 0.0 | 4.0 | 0.00 | 0.00 | 0.00 | 60 | 1003.5 |
| 20260507130025 | 68 | 113 | 0.0 | 4.0 | 0.00 | 0.00 | 0.00 | 63 | 1003.8 |
| 20260507125514 | 66 | 135 | 2.0 | 4.0 | 0.00 | 0.00 | 0.00 | 67 | 1003.8 |
| 20260507125004 | 65 | 113 | 4.0 | 4.0 | 0.00 | 0.00 | 0.00 | 66 | 1003.8 |
| 20260507124454 | 64 | 90 | 2.0 | 6.0 | 0.00 | 0.00 | 0.00 | 75 | 1003.7 |
| 20260507123944 | 62 | 225 | 3.0 | 6.0 | 0.00 | 0.00 | 0.00 | 77 | 1003.7 |
| 20260507123434 | 61 | 23 | 2.0 | 6.0 | 0.00 | 0.00 | 0.00 | 78 | 1003.7 |
| 20260507122924 | 60 | 248 | 4.0 | 6.0 | 0.00 | 0.00 | 0.00 | 78 | 1003.3 |
| 20260507122413 | 57 | 270 | 4.0 | 6.0 | 0.00 | 0.00 | 0.00 | 87 | 1003.1 |
| 20260507121904 | 54 | 158 | 4.0 | 6.0 | 0.00 | 0.00 | 0.00 | 92 | 1003.8 |
| 20260507121353 | 54 | 225 | 0.0 | 6.0 | 0.00 | 0.00 | 0.00 | 94 | 1003.6 |
| 20260507120333 | 53 | 270 | 2.0 | 9.0 | 0.00 | 0.00 | 0.00 | 95 | 1003.4 |
| 20260507115823 | 53 | 45 | 4.0 | 6.0 | 0.00 | 0.00 | 0.00 | 95 | 1003.6 |
| 20260507115313 | 53 | 135 | 0.0 | 7.0 | 0.00 | 0.00 | 0.00 | 95 | 1003.0 |
| 20260507114253 | 51 | 293 | 2.0 | 7.0 | 0.00 | 0.00 | 0.00 | 95 | 1002.9 |
| 20260507113743 | 51 | 45 | 4.0 | 8.0 | 0.00 | 0.00 | 0.00 | 95 | 1003.4 |
| 20260507112212 | 49 | 180 | 0.0 | 6.0 | 0.00 | 0.00 | 0.00 | 96 | 1002.9 |
| 20260507111153 | 48 | 90 | 0.0 | 4.0 | 0.00 | 0.00 | 0.00 | 95 | 1003.1 |
| 20260507110642 | 49 | 45 | 1.0 | 4.0 | 0.00 | 0.00 | 0.00 | 96 | 1002.9 |
| 20260507110132 | 49 | 113 | 0.0 | 0.0 | 0.00 | 0.00 | 0.00 | 96 | 1002.8 |
| 20260507105625 | 48 | 68 | 0.0 | 0.0 | 0.00 | 0.00 | 0.00 | 95 | 1003.3 |
| 20260507104607 | 49 | 270 | 0.0 | 7.0 | 0.00 | 0.00 | 0.00 | 95 | 1002.9 |
| 20260507104052 | 49 | 315 | 0.0 | 7.0 | 0.00 | 0.00 | 0.00 | 95 | 1002.7 |
| 20260507103031 | 50 | 338 | 0.0 | 8.0 | 0.00 | 0.00 | 0.00 | 95 | 1002.9 |
| 20260507102521 | 51 | 180 | 0.0 | 7.0 | 0.00 | 0.00 | 0.00 | 95 | 1003.0 |
| 20260507102011 | 52 | 158 | 5.0 | 7.0 | 0.00 | 0.00 | 0.00 | 95 | 1002.8 |
| 20260507101501 | 51 | 293 | 1.0 | 6.0 | 0.00 | 0.00 | 0.00 | 95 | 1003.5 |
| 20260507100441 | 52 | 338 | 0.0 | 6.0 | 0.00 | 0.00 | 0.00 | 95 | 1003.1 |
| 20260507095931 | 52 | 248 | 0.0 | 6.0 | 0.00 | 0.00 | 0.00 | 95 | 1003.3 |
| 20260507094910 | 53 | 90 | 3.0 | 6.0 | 0.00 | 0.00 | 0.00 | 95 | 1003.4 |
| 20260507094409 | 53 | 135 | 4.0 | 7.0 | 0.00 | 0.00 | 0.00 | 95 | 1003.8 |
| 20260507093850 | 53 | 68 | 4.0 | 7.0 | 0.00 | 0.00 | 0.00 | 95 | 1003.6 |
| 20260507093340 | 54 | 135 | 2.0 | 6.0 | 0.00 | 0.00 | 0.00 | 95 | 1003.7 |
| 20260507092830 | 54 | 113 | 1.0 | 6.0 | 0.00 | 0.00 | 0.00 | 95 | 1003.6 |
| 20260507092320 | 54 | 270 | 0.0 | 0.0 | 0.00 | 0.00 | 0.00 | 95 | 1003.5 |
| 20260507091809 | 53 | 90 | 0.0 | 2.0 | 0.00 | 0.00 | 0.00 | 95 | 1004.2 |
| 20260507091300 | 53 | 315 | 0.0 | 6.0 | 0.00 | 0.00 | 0.00 | 95 | 1004.0 |
| 20260507090749 | 53 | 338 | 0.0 | 6.0 | 0.00 | 0.00 | 0.00 | 95 | 1004.0 |
| 20260507090239 | 52 | 68 | 3.0 | 6.0 | 0.00 | 0.00 | 0.00 | 95 | 1004.0 |
| 20260507085729 | 52 | 270 | 1.0 | 8.0 | 0.00 | 0.00 | 0.00 | 95 | 1003.7 |
| 20260507085219 | 52 | 90 | 0.0 | 8.0 | 0.00 | 0.00 | 0.00 | 95 | 1004.4 |
| 20260507084709 | 53 | 338 | 0.0 | 6.0 | 0.00 | 0.00 | 0.00 | 95 | 1003.8 |
| 20260507084159 | 53 | 270 | 0.0 | 9.0 | 0.00 | 0.00 | 0.00 | 95 | 1003.8 |
| 20260507083649 | 53 | 68 | 6.0 | 9.0 | 0.00 | 0.00 | 0.00 | 95 | 1004.5 |
| 20260507082628 | 54 | 0 | 0.0 | 6.0 | 0.00 | 0.00 | 0.00 | 95 | 1004.3 |
| 20260507081608 | 55 | 315 | 6.0 | 7.0 | 0.00 | 0.00 | 0.00 | 95 | 1004.2 |
| 20260507081059 | 55 | 315 | 3.0 | 4.0 | 0.00 | 0.00 | 0.00 | 95 | 1004.5 |
| 20260507080548 | 53 | 293 | 4.0 | 4.0 | 0.00 | 0.00 | 0.00 | 95 | 1003.9 |
| 20260507080038 | 53 | 90 | 4.0 | 4.0 | 0.00 | 0.00 | 0.00 | 95 | 1004.6 |
| 20260507075528 | 52 | 23 | 0.0 | 6.0 | 0.00 | 0.00 | 0.00 | 94 | 1004.6 |
| 20260507075017 | 51 | 293 | 2.0 | 6.0 | 0.00 | 0.00 | 0.00 | 94 | 1004.3 |
| 20260507074513 | 52 | 338 | 0.0 | 4.0 | 0.00 | 0.00 | 0.00 | 94 | 1004.5 |
| 20260507073958 | 51 | 45 | 0.0 | 7.0 | 0.00 | 0.00 | 0.00 | 94 | 1004.8 |
| 20260507073447 | 51 | 68 | 4.0 | 8.0 | 0.00 | 0.00 | 0.00 | 94 | 1005.1 |
| 20260507072427 | 51 | 293 | 1.0 | 7.0 | 0.00 | 0.00 | 0.00 | 94 | 1004.2 |
| 20260507071917 | 50 | 23 | 4.0 | 7.0 | 0.00 | 0.00 | 0.00 | 94 | 1004.9 |
| 20260507071407 | 51 | 338 | 0.0 | 0.0 | 0.00 | 0.00 | 0.00 | 94 | 1004.5 |
| 20260507070857 | 52 | 45 | 0.0 | 0.0 | 0.00 | 0.00 | 0.00 | 94 | 1004.5 |
| 20260507070348 | 52 | 90 | 0.0 | 0.0 | 0.00 | 0.00 | 0.00 | 94 | 1004.9 |
| 20260507070150 | 51 | 315 | 0.0 | 0.0 | 0.00 | 0.00 | 0.00 | 94 | 1004.7 |
| 20260507065541 | 51 | 338 | 0.0 | 0.0 | 0.00 | 0.00 | 0.00 | 94 | 1004.9 |
| 20260507065031 | 53 | 158 | 0.0 | 0.0 | 0.00 | 0.00 | 0.00 | 94 | 1004.8 |
| 20260507064521 | 52 | 338 | 0.0 | 0.0 | 0.00 | 0.00 | 0.00 | 94 | 1005.2 |
| 20260507064011 | 53 | 90 | 0.0 | 0.0 | 0.00 | 0.00 | 0.00 | 94 | 1005.4 |
| 20260507063501 | 52 | 248 | 0.0 | 0.0 | 0.00 | 0.00 | 0.00 | 94 | 1005.5 |
| 20260507062951 | 53 | 45 | 0.0 | 4.0 | 0.00 | 0.00 | 0.00 | 94 | 1005.4 |
| 20260507061931 | 52 | 23 | 0.0 | 0.0 | 0.00 | 0.00 | 0.00 | 94 | 1005.8 |
| 20260507061420 | 54 | 68 | 0.0 | 0.0 | 0.00 | 0.00 | 0.00 | 94 | 1005.7 |
| 20260507060910 | 53 | 45 | 0.0 | 0.0 | 0.00 | 0.00 | 0.00 | 94 | 1005.8 |
| 20260507060400 | 54 | 135 | 0.0 | 0.0 | 0.00 | 0.00 | 0.00 | 93 | 1005.7 |
| 20260507055850 | 52 | 90 | 0.0 | 0.0 | 0.00 | 0.00 | 0.00 | 94 | 1006.2 |
| 20260507055340 | 53 | 90 | 0.0 | 0.0 | 0.00 | 0.00 | 0.00 | 94 | 1006.2 |
| 20260507054830 | 53 | 90 | 0.0 | 0.0 | 0.00 | 0.00 | 0.00 | 94 | 1006.2 |
| 20260507054320 | 53 | 23 | 0.0 | 0.0 | 0.00 | 0.00 | 0.00 | 93 | 1006.3 |
| 20260507053810 | 53 | 68 | 0.0 | 0.0 | 0.00 | 0.00 | 0.00 | 94 | 1006.5 |
| 20260507053300 | 53 | 0 | 0.0 | 0.0 | 0.00 | 0.00 | 0.00 | 94 | 1006.8 |
| 20260507052750 | 54 | 135 | 0.0 | 0.0 | 0.00 | 0.00 | 0.00 | 94 | 1006.8 |
| 20260507052239 | 53 | 90 | 0.0 | 2.0 | 0.00 | 0.00 | 0.00 | 94 | 1006.8 |
| 20260507051735 | 52 | 45 | 0.0 | 2.0 | 0.00 | 0.00 | 0.00 | 94 | 1006.8 |
| 20260507051219 | 54 | 225 | 0.0 | 0.0 | 0.00 | 0.00 | 0.00 | 93 | 1006.6 |
| 20260507050159 | 54 | 68 | 0.0 | 6.0 | 0.00 | 0.00 | 0.00 | 94 | 1006.8 |
| 20260507045648 | 53 | 68 | 1.0 | 6.0 | 0.00 | 0.00 | 0.00 | 94 | 1007.1 |
| 20260507045138 | 52 | 270 | 0.0 | 0.0 | 0.00 | 0.00 | 0.00 | 93 | 1006.6 |
| 20260507044629 | 52 | 23 | 0.0 | 0.0 | 0.00 | 0.00 | 0.00 | 93 | 1007.1 |
| 20260507044119 | 54 | 23 | 0.0 | 0.0 | 0.00 | 0.00 | 0.00 | 93 | 1007.1 |
| 20260507043608 | 53 | 23 | 0.0 | 0.0 | 0.00 | 0.00 | 0.00 | 93 | 1006.9 |
| 20260507042548 | 55 | 23 | 0.0 | 0.0 | 0.00 | 0.00 | 0.00 | 93 | 1007.0 |
| 20260507042038 | 55 | 90 | 0.0 | 0.0 | 0.00 | 0.00 | 0.00 | 93 | 1007.4 |
| 20260507041528 | 54 | 45 | 0.0 | 0.0 | 0.00 | 0.00 | 0.00 | 93 | 1007.1 |
| 20260507041018 | 54 | 45 | 0.0 | 0.0 | 0.00 | 0.00 | 0.00 | 93 | 1007.3 |
| 20260507040508 | 54 | 45 | 0.0 | 0.0 | 0.00 | 0.00 | 0.00 | 93 | 1007.2 |
| 20260507035957 | 55 | 45 | 0.0 | 0.0 | 0.00 | 0.00 | 0.00 | 93 | 1007.2 |
| 20260507035447 | 55 | 45 | 0.0 | 0.0 | 0.00 | 0.00 | 0.00 | 92 | 1007.5 |
| 20260507034428 | 55 | 68 | 0.0 | 0.0 | 0.00 | 0.00 | 0.00 | 92 | 1007.4 |
| 20260507033407 | 56 | 90 | 0.0 | 0.0 | 0.00 | 0.00 | 0.00 | 92 | 1007.8 |
| 20260507032857 | 56 | 135 | 0.0 | 0.0 | 0.00 | 0.00 | 0.00 | 92 | 1007.8 |
| 20260507032347 | 56 | 135 | 0.0 | 0.0 | 0.00 | 0.00 | 0.00 | 92 | 1007.7 |
| 20260507031837 | 56 | 135 | 0.0 | 0.0 | 0.00 | 0.00 | 0.00 | 91 | 1007.8 |
| 20260507031326 | 57 | 135 | 0.0 | 0.0 | 0.00 | 0.00 | 0.00 | 92 | 1008.0 |
| 20260507030816 | 57 | 90 | 0.0 | 0.0 | 0.00 | 0.00 | 0.00 | 92 | 1008.2 |
| 20260507030306 | 57 | 113 | 0.0 | 0.0 | 0.00 | 0.00 | 0.00 | 92 | 1007.8 |
| 20260507025756 | 57 | 113 | 0.0 | 0.0 | 0.00 | 0.00 | 0.00 | 92 | 1007.8 |
| 20260507025246 | 58 | 90 | 0.0 | 0.0 | 0.00 | 0.00 | 0.00 | 92 | 1008.0 |
| 20260507023716 | 58 | 90 | 0.0 | 0.0 | 0.00 | 0.00 | 0.00 | 92 | 1008.0 |
| 20260507023206 | 58 | 90 | 0.0 | 2.0 | 0.00 | 0.00 | 0.00 | 92 | 1008.1 |
| 20260507022656 | 59 | 113 | 0.0 | 4.0 | 0.00 | 0.00 | 0.00 | 92 | 1008.3 |
| 20260507022145 | 60 | 113 | 0.0 | 4.0 | 0.00 | 0.00 | 0.00 | 92 | 1008.2 |
| 20260507021641 | 60 | 135 | 0.0 | 2.0 | 0.00 | 0.00 | 0.00 | 92 | 1008.2 |
| 20260507021125 | 60 | 158 | 0.0 | 0.0 | 0.00 | 0.00 | 0.00 | 92 | 1008.2 |
| 20260507020105 | 60 | 113 | 0.0 | 0.0 | 0.00 | 0.00 | 0.00 | 92 | 1008.6 |
| 20260507015554 | 60 | 135 | 0.0 | 0.0 | 0.00 | 0.00 | 0.00 | 92 | 1008.2 |
| 20260507015045 | 60 | 113 | 0.0 | 0.0 | 0.00 | 0.00 | 0.00 | 92 | 1008.2 |
| 20260507014534 | 60 | 113 | 0.0 | 0.0 | 0.00 | 0.00 | 0.00 | 92 | 1008.3 |
| 20260507014024 | 60 | 113 | 0.0 | 0.0 | 0.00 | 0.00 | 0.00 | 92 | 1008.3 |
| 20260507013520 | 60 | 90 | 0.0 | 2.0 | 0.00 | 0.00 | 0.00 | 92 | 1008.4 |
| 20260507012454 | 60 | 113 | 0.0 | 2.0 | 0.00 | 0.00 | 0.00 | 92 | 1008.3 |
| 20260507011944 | 60 | 113 | 0.0 | 0.0 | 0.00 | 0.00 | 0.00 | 92 | 1008.8 |
| 20260507011434 | 61 | 113 | 0.0 | 0.0 | 0.00 | 0.00 | 0.00 | 92 | 1008.3 |
| 20260507010414 | 62 | 113 | 0.0 | 0.0 | 0.00 | 0.00 | 0.00 | 92 | 1008.3 |
| 20260507005903 | 62 | 113 | 0.0 | 0.0 | 0.00 | 0.00 | 0.00 | 92 | 1008.6 |
| 20260507005353 | 62 | 113 | 0.0 | 0.0 | 0.00 | 0.00 | 0.00 | 92 | 1008.4 |
| 20260507004843 | 63 | 135 | 0.0 | 0.0 | 0.00 | 0.00 | 0.00 | 92 | 1008.7 |
| 20260507004333 | 63 | 135 | 0.0 | 0.0 | 0.00 | 0.00 | 0.00 | 92 | 1008.3 |
| 20260507003823 | 63 | 135 | 0.0 | 0.0 | 0.00 | 0.00 | 0.00 | 92 | 1008.4 |
| 20260507002803 | 63 | 135 | 0.0 | 0.0 | 0.00 | 0.00 | 0.00 | 91 | 1008.4 |
| 20260507002252 | 64 | 135 | 0.0 | 0.0 | 0.00 | 0.00 | 0.00 | 91 | 1008.6 |
| 20260507001742 | 64 | 135 | 0.0 | 2.0 | 0.00 | 0.00 | 0.00 | 91 | 1008.3 |
| 20260507001232 | 64 | 180 | 0.0 | 2.0 | 0.00 | 0.00 | 0.00 | 91 | 1008.1 |
| 20260507000722 | 64 | 158 | 0.0 | 0.0 | 0.00 | 0.00 | 0.00 | 91 | 1008.0 |
| 20260507000212 | 64 | 180 | 0.0 | 2.0 | 0.00 | 0.00 | 0.00 | 91 | 1008.1 |
| 20260506235702 | 64 | 158 | 0.0 | 2.0 | 0.00 | 0.00 | 0.00 | 91 | 1008.3 |
| 20260506235152 | 65 | 158 | 0.0 | 4.0 | 0.00 | 0.00 | 0.00 | 90 | 1008.0 |
| 20260506234642 | 65 | 180 | 0.0 | 4.0 | 0.00 | 0.00 | 0.00 | 90 | 1007.9 |
| 20260506234132 | 65 | 158 | 0.0 | 2.0 | 0.00 | 0.00 | 0.00 | 90 | 1008.1 |
| 20260506233621 | 65 | 158 | 0.0 | 7.0 | 0.00 | 0.00 | 0.00 | 90 | 1007.5 |
| 20260506233112 | 65 | 158 | 2.0 | 7.0 | 0.00 | 0.00 | 0.00 | 89 | 1008.0 |
| 20260506232601 | 66 | 180 | 1.0 | 6.0 | 0.00 | 0.00 | 0.00 | 89 | 1007.9 |
| 20260506232056 | 66 | 135 | 0.0 | 7.0 | 0.00 | 0.00 | 0.00 | 88 | 1007.5 |
| 20260506231541 | 66 | 158 | 2.0 | 7.0 | 0.00 | 0.00 | 0.00 | 88 | 1007.7 |
| 20260506231032 | 66 | 203 | 2.0 | 4.0 | 0.00 | 0.00 | 0.00 | 88 | 1007.9 |
| 20260506230521 | 67 | 113 | 1.0 | 4.0 | 0.00 | 0.00 | 0.00 | 87 | 1007.8 |
| 20260506230012 | 67 | 158 | 0.0 | 2.0 | 0.00 | 0.00 | 0.00 | 86 | 1007.5 |
| 20260506225501 | 67 | 180 | 0.0 | 2.0 | 0.00 | 0.00 | 0.00 | 86 | 1007.9 |
| 20260506224955 | 67 | 158 | 0.0 | 2.0 | 0.00 | 0.00 | 0.00 | 86 | 1007.7 |
| 20260506223930 | 67 | 248 | 0.0 | 0.0 | 0.00 | 0.00 | 0.00 | 85 | 1007.7 |
| 20260506223420 | 68 | 248 | 0.0 | 2.0 | 0.00 | 0.00 | 0.00 | 85 | 1007.7 |
| 20260506222910 | 68 | 203 | 0.0 | 2.0 | 0.00 | 0.00 | 0.00 | 85 | 1007.5 |
| 20260506221850 | 69 | 225 | 0.0 | 2.0 | 0.00 | 0.00 | 0.00 | 85 | 1007.3 |
| 20260506221340 | 69 | 225 | 0.0 | 4.0 | 0.00 | 0.00 | 0.00 | 84 | 1007.2 |
| 20260506220830 | 69 | 225 | 2.0 | 6.0 | 0.00 | 0.00 | 0.00 | 85 | 1007.3 |
| 20260506220329 | 69 | 203 | 3.0 | 6.0 | 0.00 | 0.00 | 0.00 | 84 | 1007.2 |
| 20260506215810 | 69 | 248 | 3.0 | 8.0 | 0.00 | 0.00 | 0.00 | 84 | 1006.9 |
| 20260506215306 | 69 | 225 | 2.0 | 8.0 | 0.00 | 0.00 | 0.00 | 84 | 1007.0 |
| 20260506214749 | 70 | 225 | 2.0 | 7.0 | 0.00 | 0.00 | 0.00 | 83 | 1006.9 |
| 20260506214239 | 70 | 225 | 3.0 | 9.0 | 0.00 | 0.00 | 0.00 | 83 | 1006.8 |
| 20260506213218 | 71 | 225 | 3.0 | 9.0 | 0.00 | 0.00 | 0.00 | 82 | 1006.8 |
| 20260506212709 | 71 | 248 | 4.0 | 9.0 | 0.00 | 0.00 | 0.00 | 81 | 1006.9 |
| 20260506212159 | 71 | 248 | 2.0 | 9.0 | 0.00 | 0.00 | 0.00 | 81 | 1006.8 |
| 20260506211139 | 71 | 248 | 3.0 | 9.0 | 0.00 | 0.00 | 0.00 | 81 | 1006.6 |
| 20260506210628 | 72 | 225 | 2.0 | 9.0 | 0.00 | 0.00 | 0.00 | 81 | 1006.8 |
| 20260506210118 | 72 | 248 | 3.0 | 9.0 | 0.00 | 0.00 | 0.00 | 80 | 1006.5 |
| 20260506205058 | 73 | 225 | 2.0 | 9.0 | 0.00 | 0.00 | 0.00 | 79 | 1006.8 |
| 20260506204548 | 73 | 248 | 0.0 | 9.0 | 0.00 | 0.00 | 0.00 | 79 | 1006.8 |
| 20260506203527 | 73 | 248 | 4.0 | 8.0 | 0.00 | 0.00 | 0.00 | 78 | 1006.3 |
| 20260506203018 | 74 | 248 | 2.0 | 9.0 | 0.00 | 0.00 | 0.00 | 77 | 1006.2 |
| 20260506202508 | 74 | 248 | 1.0 | 11.0 | 0.00 | 0.00 | 0.00 | 77 | 1006.4 |
| 20260506201958 | 74 | 203 | 2.0 | 11.0 | 0.00 | 0.00 | 0.00 | 75 | 1006.3 |
| 20260506201447 | 75 | 225 | 5.0 | 9.0 | 0.00 | 0.00 | 0.00 | 74 | 1006.4 |
| 20260506200937 | 76 | 248 | 5.0 | 15.0 | 0.00 | 0.00 | 0.00 | 73 | 1006.3 |
| 20260506195917 | 77 | 225 | 4.0 | 14.0 | 0.00 | 0.00 | 0.00 | 71 | 1006.3 |
| 20260506195406 | 78 | 225 | 5.0 | 15.0 | 0.00 | 0.00 | 0.00 | 71 | 1006.3 |
| 20260506194857 | 78 | 248 | 9.0 | 15.0 | 0.00 | 0.00 | 0.00 | 70 | 1006.1 |
| 20260506194347 | 78 | 225 | 4.0 | 9.0 | 0.00 | 0.00 | 0.00 | 70 | 1006.1 |
| 20260506193836 | 78 | 203 | 2.0 | 11.0 | 0.00 | 0.00 | 0.00 | 71 | 1006.0 |
| 20260506193326 | 78 | 225 | 4.0 | 11.0 | 0.00 | 0.00 | 0.00 | 71 | 1006.3 |
| 20260506192816 | 77 | 248 | 6.0 | 11.0 | 0.00 | 0.00 | 0.00 | 73 | 1005.8 |
| 20260506192306 | 78 | 225 | 5.0 | 9.0 | 0.00 | 0.00 | 0.00 | 72 | 1006.2 |
| 20260506191756 | 78 | 248 | 5.0 | 9.0 | 0.00 | 0.00 | 0.00 | 72 | 1006.3 |
| 20260506191246 | 79 | 225 | 4.0 | 8.0 | 0.00 | 0.00 | 0.00 | 70 | 1006.2 |
| 20260506190736 | 79 | 203 | 4.0 | 6.0 | 0.00 | 0.00 | 0.00 | 70 | 1006.4 |
| 20260506190226 | 78 | 225 | 1.0 | 4.0 | 0.00 | 0.00 | 0.00 | 71 | 1006.4 |
| 20260506185716 | 79 | 248 | 1.0 | 2.0 | 0.00 | 0.00 | 0.00 | 68 | 1006.5 |
| 20260506185206 | 79 | 248 | 0.0 | 2.0 | 0.00 | 0.00 | 0.00 | 71 | 1006.5 |
| 20260506184145 | 78 | 248 | 0.0 | 6.0 | 0.00 | 0.00 | 0.00 | 70 | 1006.8 |
| 20260506183125 | 78 | 248 | 2.0 | 4.0 | 0.00 | 0.00 | 0.00 | 71 | 1007.1 |
| 20260506182615 | 77 | 225 | 0.0 | 6.0 | 0.00 | 0.00 | 0.00 | 71 | 1007.1 |
| 20260506181555 | 77 | 203 | 0.0 | 4.0 | 0.00 | 0.00 | 0.00 | 67 | 1007.0 |
| 20260506180539 | 76 | 293 | 0.0 | 0.0 | 0.00 | 0.00 | 0.00 | 69 | 1007.2 |
| 20260506180025 | 75 | 338 | 0.0 | 2.0 | 0.00 | 0.00 | 0.00 | 70 | 1007.3 |
| 20260506175515 | 76 | 338 | 0.0 | 2.0 | 0.00 | 0.00 | 0.00 | 69 | 1007.7 |
| 20260506175004 | 75 | 338 | 0.0 | 4.0 | 0.00 | 0.00 | 0.00 | 69 | 1007.5 |
| 20260506174454 | 76 | 315 | 0.0 | 4.0 | 0.00 | 0.00 | 0.00 | 71 | 1007.8 |
| 20260506173943 | 75 | 315 | 3.0 | 8.0 | 0.00 | 0.00 | 0.00 | 71 | 1007.8 |
| 20260506173443 | 74 | 338 | 0.0 | 8.0 | 0.00 | 0.00 | 0.00 | 70 | 1007.9 |
| 20260506172924 | 74 | 315 | 4.0 | 7.0 | 0.00 | 0.00 | 0.00 | 70 | 1008.0 |
| 20260506171353 | 73 | 0 | 0.0 | 8.0 | 0.00 | 0.00 | 0.00 | 71 | 1008.2 |
| 20260506170333 | 73 | 293 | 4.0 | 7.0 | 0.00 | 0.00 | 0.00 | 73 | 1008.3 |
| 20260506165823 | 72 | 293 | 4.0 | 7.0 | 0.00 | 0.00 | 0.00 | 73 | 1008.6 |
| 20260506164803 | 72 | 270 | 0.0 | 4.0 | 0.00 | 0.00 | 0.00 | 72 | 1008.7 |
| 20260506164253 | 72 | 293 | 0.0 | 2.0 | 0.00 | 0.00 | 0.00 | 73 | 1008.7 |
| 20260506163743 | 73 | 338 | 1.0 | 4.0 | 0.00 | 0.00 | 0.00 | 72 | 1008.8 |
| 20260506163232 | 73 | 315 | 0.0 | 4.0 | 0.00 | 0.00 | 0.00 | 72 | 1009.1 |
| 20260506162722 | 74 | 293 | 0.0 | 0.0 | 0.00 | 0.00 | 0.00 | 72 | 1009.0 |
| 20260506162212 | 73 | 293 | 0.0 | 0.0 | 0.00 | 0.00 | 0.00 | 70 | 1009.0 |
| 20260506161703 | 72 | 0 | 0.0 | 2.0 | 0.00 | 0.00 | 0.00 | 72 | 1009.2 |
| 20260506160652 | 72 | 315 | 2.0 | 7.0 | 0.00 | 0.00 | 0.00 | 77 | 1009.5 |
| 20260506160132 | 70 | 0 | 1.0 | 7.0 | 0.00 | 0.00 | 0.00 | 77 | 1009.5 |
| 20260506155622 | 69 | 293 | 2.0 | 6.0 | 0.00 | 0.00 | 0.00 | 78 | 1009.6 |
| 20260506155111 | 69 | 315 | 3.0 | 7.0 | 0.00 | 0.00 | 0.00 | 80 | 1010.0 |
| 20260506154051 | 68 | 338 | 3.0 | 11.0 | 0.00 | 0.00 | 0.00 | 81 | 1010.1 |
| 20260506153541 | 67 | 315 | 2.0 | 6.0 | 0.00 | 0.00 | 0.00 | 82 | 1010.2 |
| 20260506153031 | 68 | 315 | 3.0 | 6.0 | 0.00 | 0.00 | 0.00 | 84 | 1010.5 |
| 20260506152521 | 67 | 315 | 3.0 | 8.0 | 0.00 | 0.00 | 0.00 | 85 | 1010.5 |
| 20260506152010 | 66 | 338 | 2.0 | 8.0 | 0.00 | 0.00 | 0.00 | 85 | 1010.7 |
| 20260506151501 | 65 | 315 | 4.0 | 9.0 | 0.00 | 0.00 | 0.00 | 87 | 1010.9 |
| 20260506145930 | 63 | 315 | 4.0 | 7.0 | 0.00 | 0.00 | 0.00 | 89 | 1011.4 |
| 20260506145421 | 63 | 270 | 5.0 | 8.0 | 0.00 | 0.00 | 0.00 | 90 | 1011.4 |
| 20260506144910 | 63 | 293 | 4.0 | 8.0 | 0.00 | 0.00 | 0.00 | 90 | 1011.5 |
| 20260506143850 | 63 | 293 | 6.0 | 9.0 | 0.00 | 0.00 | 0.00 | 90 | 1011.6 |
| 20260506143340 | 64 | 293 | 4.0 | 8.0 | 0.00 | 0.00 | 0.00 | 91 | 1011.7 |
| 20260506142837 | 62 | 270 | 5.0 | 8.0 | 0.00 | 0.00 | 0.00 | 90 | 1012.1 |
| 20260506142319 | 62 | 315 | 2.0 | 7.0 | 0.00 | 0.00 | 0.00 | 91 | 1011.9 |
| 20260506141810 | 62 | 315 | 3.0 | 7.0 | 0.00 | 0.00 | 0.00 | 92 | 1012.2 |
| 20260506141300 | 61 | 315 | 2.0 | 7.0 | 0.00 | 0.00 | 0.00 | 92 | 1012.4 |
| 20260506140749 | 61 | 338 | 4.0 | 7.0 | 0.00 | 0.00 | 0.00 | 93 | 1012.3 |
| 20260506140242 | 60 | 45 | 3.0 | 8.0 | 0.00 | 0.00 | 0.00 | 93 | 1012.5 |
| 20260506135729 | 60 | 0 | 4.0 | 8.0 | 0.00 | 0.00 | 0.00 | 93 | 1012.3 |
| 20260506135219 | 60 | 315 | 4.0 | 8.0 | 0.00 | 0.00 | 0.00 | 93 | 1012.5 |
| 20260506134159 | 60 | 23 | 4.0 | 8.0 | 0.00 | 0.00 | 0.00 | 93 | 1012.4 |
| 20260506133648 | 60 | 0 | 0.0 | 6.0 | 0.00 | 0.00 | 0.00 | 93 | 1012.1 |
| 20260506133140 | 59 | 23 | 2.0 | 7.0 | 0.00 | 0.00 | 0.00 | 93 | 1012.2 |